sensor_id;sensor_type;location;lat;lon;timestamp;pressure;altitude;pressure_sealevel;temperature;humidity
9521;BME280;4798;41.574;23.734;2023-07-16T00:00:54;95538.16;;;27.58;100.00
9521;BME280;4798;41.574;23.734;2023-07-16T00:03:22;95536.13;;;27.48;100.00
9521;BME280;4798;41.574;23.734;2023-07-16T00:05:52;95533.38;;;27.44;100.00
9521;BME280;4798;41.574;23.734;2023-07-16T00:08:21;95529.28;;;27.31;100.00
9521;BME280;4798;41.574;23.734;2023-07-16T00:10:50;95531.59;;;27.29;100.00
9521;BME280;4798;41.574;23.734;2023-07-16T00:13:18;95531.53;;;27.26;100.00
9521;BME280;4798;41.574;23.734;2023-07-16T00:15:46;95535.78;;;27.23;100.00
9521;BME280;4798;41.574;23.734;2023-07-16T00:18:15;95531.06;;;27.17;100.00
9521;BME280;4798;41.574;23.734;2023-07-16T00:20:43;95528.69;;;27.15;100.00
9521;BME280;4798;41.574;23.734;2023-07-16T00:23:13;95528.50;;;27.01;100.00
9521;BME280;4798;41.574;23.734;2023-07-16T00:25:41;95528.50;;;27.01;100.00
9521;BME280;4798;41.574;23.734;2023-07-16T00:28:09;95530.84;;;27.02;100.00
9521;BME280;4798;41.574;23.734;2023-07-16T00:30:38;95523.16;;;27.08;100.00
9521;BME280;4798;41.574;23.734;2023-07-16T00:33:07;95526.94;;;27.00;100.00
9521;BME280;4798;41.574;23.734;2023-07-16T00:35:35;95533.97;;;27.01;100.00
9521;BME280;4798;41.574;23.734;2023-07-16T00:38:04;95533.22;;;27.04;100.00
9521;BME280;4798;41.574;23.734;2023-07-16T00:40:33;95529.88;;;26.88;100.00
9521;BME280;4798;41.574;23.734;2023-07-16T00:43:02;95538.88;;;26.92;100.00
9521;BME280;4798;41.574;23.734;2023-07-16T00:45:30;95534.53;;;26.87;100.00
9521;BME280;4798;41.574;23.734;2023-07-16T00:47:58;95534.50;;;26.84;100.00
9521;BME280;4798;41.574;23.734;2023-07-16T00:50:29;95530.25;;;26.86;100.00
9521;BME280;4798;41.574;23.734;2023-07-16T00:53:01;95529.19;;;26.68;100.00
9521;BME280;4798;41.574;23.734;2023-07-16T00:55:30;95532.47;;;26.55;100.00
9521;BME280;4798;41.574;23.734;2023-07-16T00:58:01;95536.16;;;26.17;100.00
9521;BME280;4798;41.574;23.734;2023-07-16T01:00:32;95530.69;;;26.39;100.00
9521;BME280;4798;41.574;23.734;2023-07-16T01:03:01;95531.84;;;26.38;100.00
9521;BME280;4798;41.574;23.734;2023-07-16T01:05:35;95531.31;;;26.29;100.00
9521;BME280;4798;41.574;23.734;2023-07-16T01:08:07;95530.78;;;26.20;100.00
9521;BME280;4798;41.574;23.734;2023-07-16T01:10:37;95537.63;;;26.37;100.00
9521;BME280;4798;41.574;23.734;2023-07-16T01:13:08;95531.84;;;26.38;100.00
9521;BME280;4798;41.574;23.734;2023-07-16T01:15:36;95534.00;;;26.52;100.00
9521;BME280;4798;41.574;23.734;2023-07-16T01:18:05;95530.47;;;26.52;100.00
9521;BME280;4798;41.574;23.734;2023-07-16T01:20:33;95532.38;;;26.47;100.00
9521;BME280;4798;41.574;23.734;2023-07-16T01:26:23;95531.78;;;26.35;100.00
9521;BME280;4798;41.574;23.734;2023-07-16T01:29:25;95527.06;;;26.32;100.00
9521;BME280;4798;41.574;23.734;2023-07-16T01:31:56;95526.28;;;26.31;100.00
9521;BME280;4798;41.574;23.734;2023-07-16T01:34:30;95523.56;;;26.31;100.00
9521;BME280;4798;41.574;23.734;2023-07-16T01:37:00;95526.66;;;26.30;100.00
9521;BME280;4798;41.574;23.734;2023-07-16T01:39:29;95528.84;;;26.21;100.00
9521;BME280;4798;41.574;23.734;2023-07-16T01:41:59;95529.91;;;26.16;100.00
9521;BME280;4798;41.574;23.734;2023-07-16T01:44:29;95535.31;;;25.94;100.00
9521;BME280;4798;41.574;23.734;2023-07-16T01:47:09;95537.44;;;26.04;100.00
9521;BME280;4798;41.574;23.734;2023-07-16T01:49:38;95488.69;;;25.88;100.00
9521;BME280;4798;41.574;23.734;2023-07-16T01:52:07;95542.66;;;26.12;100.00
9521;BME280;4798;41.574;23.734;2023-07-16T01:54:36;95530.94;;;26.08;100.00
9521;BME280;4798;41.574;23.734;2023-07-16T01:57:04;95474.31;;;25.65;100.00
9521;BME280;4798;41.574;23.734;2023-07-16T01:59:34;95540.03;;;25.97;100.00
9521;BME280;4798;41.574;23.734;2023-07-16T02:02:04;95529.97;;;25.97;100.00
9521;BME280;4798;41.574;23.734;2023-07-16T02:04:33;95544.59;;;25.70;100.00
9521;BME280;4798;41.574;23.734;2023-07-16T02:07:01;95543.94;;;25.76;100.00
9521;BME280;4798;41.574;23.734;2023-07-16T02:09:30;95541.00;;;25.85;100.00
9521;BME280;4798;41.574;23.734;2023-07-16T02:11:58;95532.06;;;25.84;100.00
9521;BME280;4798;41.574;23.734;2023-07-16T02:14:26;95533.69;;;25.89;100.00
9521;BME280;4798;41.574;23.734;2023-07-16T02:16:56;95535.38;;;25.74;100.00
9521;BME280;4798;41.574;23.734;2023-07-16T02:19:24;95535.72;;;25.73;100.00
9521;BME280;4798;41.574;23.734;2023-07-16T02:21:53;95533.38;;;25.71;100.00
9521;BME280;4798;41.574;23.734;2023-07-16T02:24:22;95542.09;;;25.80;100.00
9521;BME280;4798;41.574;23.734;2023-07-16T02:26:50;95534.09;;;25.68;100.00
9521;BME280;4798;41.574;23.734;2023-07-16T02:29:19;95539.94;;;25.70;100.00
9521;BME280;4798;41.574;23.734;2023-07-16T02:31:47;95533.75;;;25.70;100.00
9521;BME280;4798;41.574;23.734;2023-07-16T02:34:17;95537.59;;;25.69;100.00
9521;BME280;4798;41.574;23.734;2023-07-16T02:36:45;95547.16;;;25.63;100.00
9521;BME280;4798;41.574;23.734;2023-07-16T02:39:14;95550.94;;;25.20;100.00
9521;BME280;4798;41.574;23.734;2023-07-16T02:41:42;95545.16;;;25.41;100.00
9521;BME280;4798;41.574;23.734;2023-07-16T02:44:10;95539.59;;;25.34;100.00
9521;BME280;4798;41.574;23.734;2023-07-16T02:46:38;95541.31;;;25.42;100.00
9521;BME280;4798;41.574;23.734;2023-07-16T02:49:08;95544.44;;;25.44;100.00
9521;BME280;4798;41.574;23.734;2023-07-16T02:51:38;95542.72;;;25.36;100.00
9521;BME280;4798;41.574;23.734;2023-07-16T02:54:06;95545.41;;;25.32;100.00
9521;BME280;4798;41.574;23.734;2023-07-16T02:56:35;95546.09;;;25.29;100.00
9521;BME280;4798;41.574;23.734;2023-07-16T02:59:03;95552.75;;;25.32;100.00
9521;BME280;4798;41.574;23.734;2023-07-16T03:01:31;95550.25;;;25.42;100.00
9521;BME280;4798;41.574;23.734;2023-07-16T03:04:00;95549.78;;;25.40;100.00
9521;BME280;4798;41.574;23.734;2023-07-16T03:06:29;95555.59;;;25.39;100.00
9521;BME280;4798;41.574;23.734;2023-07-16T03:08:59;95552.38;;;25.14;100.00
9521;BME280;4798;41.574;23.734;2023-07-16T03:11:28;95559.16;;;25.23;100.00
9521;BME280;4798;41.574;23.734;2023-07-16T03:13:56;95551.88;;;25.27;100.00
9521;BME280;4798;41.574;23.734;2023-07-16T03:16:24;95560.22;;;25.19;100.00
9521;BME280;4798;41.574;23.734;2023-07-16T03:18:53;95555.97;;;25.37;100.00
9521;BME280;4798;41.574;23.734;2023-07-16T03:21:21;95557.94;;;25.40;100.00
9521;BME280;4798;41.574;23.734;2023-07-16T03:23:50;95558.38;;;25.42;100.00
9521;BME280;4798;41.574;23.734;2023-07-16T03:26:19;95564.03;;;25.34;100.00
9521;BME280;4798;41.574;23.734;2023-07-16T03:28:48;95561.69;;;25.32;100.00
9521;BME280;4798;41.574;23.734;2023-07-16T03:31:16;95562.16;;;25.38;100.00
9521;BME280;4798;41.574;23.734;2023-07-16T03:33:45;95562.66;;;25.43;100.00
9521;BME280;4798;41.574;23.734;2023-07-16T03:36:13;95559.59;;;25.45;100.00
9521;BME280;4798;41.574;23.734;2023-07-16T03:38:42;95560.06;;;25.47;100.00
9521;BME280;4798;41.574;23.734;2023-07-16T03:41:10;95559.25;;;25.46;100.00
9521;BME280;4798;41.574;23.734;2023-07-16T03:43:40;95559.34;;;25.50;100.00
9521;BME280;4798;41.574;23.734;2023-07-16T03:46:08;95561.03;;;25.58;100.00
9521;BME280;4798;41.574;23.734;2023-07-16T03:48:37;95559.47;;;25.57;100.00
9521;BME280;4798;41.574;23.734;2023-07-16T03:51:06;95567.31;;;25.62;100.00
9521;BME280;4798;41.574;23.734;2023-07-16T03:53:34;95563.28;;;25.52;100.00
9521;BME280;4798;41.574;23.734;2023-07-16T03:56:02;95567.91;;;25.52;100.00
9521;BME280;4798;41.574;23.734;2023-07-16T03:58:31;95569.06;;;25.35;100.00
9521;BME280;4798;41.574;23.734;2023-07-16T04:01:00;95562.94;;;25.38;100.00
9521;BME280;4798;41.574;23.734;2023-07-16T04:03:29;95568.59;;;25.30;100.00
9521;BME280;4798;41.574;23.734;2023-07-16T04:06:02;95562.31;;;25.45;100.00
9521;BME280;4798;41.574;23.734;2023-07-16T04:08:30;95566.97;;;25.63;100.00
9521;BME280;4798;41.574;23.734;2023-07-16T04:10:58;95573.47;;;25.59;100.00
9521;BME280;4798;41.574;23.734;2023-07-16T04:13:27;95576.25;;;25.62;100.00
9521;BME280;4798;41.574;23.734;2023-07-16T04:15:55;95578.03;;;25.74;100.00
9521;BME280;4798;41.574;23.734;2023-07-16T04:18:26;95557.38;;;25.69;100.00
9521;BME280;4798;41.574;23.734;2023-07-16T04:20:54;95576.00;;;25.90;100.00
9521;BME280;4798;41.574;23.734;2023-07-16T04:23:23;95580.66;;;25.70;100.00
9521;BME280;4798;41.574;23.734;2023-07-16T04:25:52;95571.88;;;25.58;100.00
9521;BME280;4798;41.574;23.734;2023-07-16T04:28:21;95583.66;;;25.84;100.00
9521;BME280;4798;41.574;23.734;2023-07-16T04:30:50;95583.16;;;25.79;100.00
9521;BME280;4798;41.574;23.734;2023-07-16T04:33:18;95578.78;;;25.94;100.00
9521;BME280;4798;41.574;23.734;2023-07-16T04:35:48;95592.84;;;25.99;100.00
9521;BME280;4798;41.574;23.734;2023-07-16T04:38:16;95585.41;;;26.15;100.00
9521;BME280;4798;41.574;23.734;2023-07-16T04:40:45;95592.25;;;26.09;100.00
9521;BME280;4798;41.574;23.734;2023-07-16T04:43:13;95587.91;;;26.05;100.00
9521;BME280;4798;41.574;23.734;2023-07-16T04:45:43;95587.72;;;26.13;100.00
9521;BME280;4798;41.574;23.734;2023-07-16T04:48:13;95590.56;;;26.01;100.00
9521;BME280;4798;41.574;23.734;2023-07-16T04:50:42;95592.22;;;26.06;100.00
9521;BME280;4798;41.574;23.734;2023-07-16T04:53:12;95584.91;;;26.10;100.00
9521;BME280;4798;41.574;23.734;2023-07-16T04:55:40;95596.72;;;26.17;100.00
9521;BME280;4798;41.574;23.734;2023-07-16T04:58:10;95585.66;;;25.88;100.00
9521;BME280;4798;41.574;23.734;2023-07-16T05:00:39;95594.09;;;26.24;100.00
9521;BME280;4798;41.574;23.734;2023-07-16T05:03:08;95589.75;;;26.42;100.00
9521;BME280;4798;41.574;23.734;2023-07-16T05:05:36;95598.72;;;26.20;100.00
9521;BME280;4798;41.574;23.734;2023-07-16T05:08:05;95595.72;;;26.52;100.00
9521;BME280;4798;41.574;23.734;2023-07-16T05:10:34;95597.47;;;26.63;100.00
9521;BME280;4798;41.574;23.734;2023-07-16T05:13:03;95597.63;;;26.47;100.00
9521;BME280;4798;41.574;23.734;2023-07-16T05:15:32;95602.81;;;26.33;100.00
9521;BME280;4798;41.574;23.734;2023-07-16T05:20:48;95607.69;;;26.70;100.00
9521;BME280;4798;41.574;23.734;2023-07-16T05:23:17;95593.00;;;26.52;100.00
9521;BME280;4798;41.574;23.734;2023-07-16T05:25:47;95551.16;;;26.11;100.00
9521;BME280;4798;41.574;23.734;2023-07-16T05:28:17;95607.88;;;26.12;100.00
9521;BME280;4798;41.574;23.734;2023-07-16T05:30:46;95608.50;;;26.25;100.00
9521;BME280;4798;41.574;23.734;2023-07-16T05:33:14;95604.38;;;26.12;100.00
9521;BME280;4798;41.574;23.734;2023-07-16T05:35:42;95605.53;;;26.56;100.00
9521;BME280;4798;41.574;23.734;2023-07-16T05:38:11;95600.22;;;27.16;100.00
9521;BME280;4798;41.574;23.734;2023-07-16T05:40:39;95609.22;;;27.46;100.00
9521;BME280;4798;41.574;23.734;2023-07-16T05:43:09;95610.84;;;27.84;100.00
9521;BME280;4798;41.574;23.734;2023-07-16T05:45:37;95613.31;;;27.96;96.92
9521;BME280;4798;41.574;23.734;2023-07-16T05:48:05;95608.91;;;27.84;97.13
9521;BME280;4798;41.574;23.734;2023-07-16T05:50:34;95605.38;;;28.17;95.39
9521;BME280;4798;41.574;23.734;2023-07-16T05:53:03;95606.72;;;27.97;96.25
9521;BME280;4798;41.574;23.734;2023-07-16T05:55:31;95608.34;;;28.38;94.10
9521;BME280;4798;41.574;23.734;2023-07-16T05:57:59;95597.38;;;28.34;91.25
9521;BME280;4798;41.574;23.734;2023-07-16T06:00:29;95597.97;;;28.58;90.09
9521;BME280;4798;41.574;23.734;2023-07-16T06:02:58;95603.25;;;28.80;91.65
9521;BME280;4798;41.574;23.734;2023-07-16T06:05:26;95603.91;;;28.67;91.35
9521;BME280;4798;41.574;23.734;2023-07-16T06:07:59;95613.81;;;28.85;89.56
9521;BME280;4798;41.574;23.734;2023-07-16T06:10:27;95608.88;;;29.02;88.43
9521;BME280;4798;41.574;23.734;2023-07-16T06:12:56;95613.63;;;29.12;88.41
9521;BME280;4798;41.574;23.734;2023-07-16T06:15:24;95604.34;;;28.72;87.87
9521;BME280;4798;41.574;23.734;2023-07-16T06:17:54;95607.47;;;28.74;88.92
9521;BME280;4798;41.574;23.734;2023-07-16T06:20:22;95597.97;;;29.05;86.49
9521;BME280;4798;41.574;23.734;2023-07-16T06:22:50;95600.44;;;29.21;87.16
9521;BME280;4798;41.574;23.734;2023-07-16T06:25:19;95602.50;;;29.41;86.03
9521;BME280;4798;41.574;23.734;2023-07-16T06:27:47;95591.66;;;29.63;85.25
9521;BME280;4798;41.574;23.734;2023-07-16T06:30:16;95603.50;;;29.98;84.60
9521;BME280;4798;41.574;23.734;2023-07-16T06:32:44;95589.81;;;29.09;84.92
9521;BME280;4798;41.574;23.734;2023-07-16T06:35:14;95593.38;;;29.20;87.26
9521;BME280;4798;41.574;23.734;2023-07-16T06:37:43;95587.94;;;30.09;83.66
9521;BME280;4798;41.574;23.734;2023-07-16T06:40:11;95586.34;;;29.94;81.50
9521;BME280;4798;41.574;23.734;2023-07-16T06:42:40;95583.72;;;30.54;79.98
9521;BME280;4798;41.574;23.734;2023-07-16T06:45:08;95580.97;;;30.47;78.49
9521;BME280;4798;41.574;23.734;2023-07-16T06:47:36;95575.84;;;30.17;80.25
9521;BME280;4798;41.574;23.734;2023-07-16T06:50:06;95572.31;;;30.03;80.64
9521;BME280;4798;41.574;23.734;2023-07-16T06:52:35;95569.94;;;30.01;80.15
9521;BME280;4798;41.574;23.734;2023-07-16T06:55:05;95577.44;;;30.40;78.68
9521;BME280;4798;41.574;23.734;2023-07-16T06:57:33;95578.25;;;30.40;77.67
9521;BME280;4798;41.574;23.734;2023-07-16T07:00:01;95568.84;;;30.45;77.98
9521;BME280;4798;41.574;23.734;2023-07-16T07:02:31;95561.78;;;31.11;75.32
9521;BME280;4798;41.574;23.734;2023-07-16T07:04:59;95561.16;;;31.79;74.06
9521;BME280;4798;41.574;23.734;2023-07-16T07:07:27;95552.03;;;32.07;71.58
9521;BME280;4798;41.574;23.734;2023-07-16T07:09:57;95553.72;;;32.45;68.78
9521;BME280;4798;41.574;23.734;2023-07-16T07:12:25;95555.50;;;32.70;71.31
9521;BME280;4798;41.574;23.734;2023-07-16T07:14:53;95554.47;;;32.49;67.47
9521;BME280;4798;41.574;23.734;2023-07-16T07:17:21;95544.59;;;32.04;68.50
9521;BME280;4798;41.574;23.734;2023-07-16T07:19:50;95548.94;;;32.60;66.89
9521;BME280;4798;41.574;23.734;2023-07-16T07:22:18;95557.34;;;32.32;66.47
9521;BME280;4798;41.574;23.734;2023-07-16T07:24:48;95560.09;;;31.56;67.45
9521;BME280;4798;41.574;23.734;2023-07-16T07:27:18;95547.66;;;32.13;70.60
9521;BME280;4798;41.574;23.734;2023-07-16T07:29:47;95549.53;;;32.27;67.17
9521;BME280;4798;41.574;23.734;2023-07-16T07:32:19;95550.41;;;32.13;67.11
9521;BME280;4798;41.574;23.734;2023-07-16T07:34:47;95553.69;;;32.56;66.81
9521;BME280;4798;41.574;23.734;2023-07-16T07:37:16;95544.38;;;33.24;63.93
9521;BME280;4798;41.574;23.734;2023-07-16T07:39:44;95547.66;;;33.12;63.45
9521;BME280;4798;41.574;23.734;2023-07-16T07:42:14;95546.94;;;33.42;64.30
9521;BME280;4798;41.574;23.734;2023-07-16T07:44:44;95527.41;;;32.96;63.12
9521;BME280;4798;41.574;23.734;2023-07-16T07:47:12;95538.75;;;32.98;64.18
9521;BME280;4798;41.574;23.734;2023-07-16T07:49:40;95524.00;;;32.37;65.01
9521;BME280;4798;41.574;23.734;2023-07-16T07:52:09;95533.63;;;33.37;63.63
9521;BME280;4798;41.574;23.734;2023-07-16T07:54:37;95529.47;;;32.37;64.82
9521;BME280;4798;41.574;23.734;2023-07-16T07:57:06;95534.56;;;32.86;65.34
9521;BME280;4798;41.574;23.734;2023-07-16T07:59:34;95523.56;;;33.27;63.54
9521;BME280;4798;41.574;23.734;2023-07-16T08:02:05;95519.75;;;33.17;60.71
9521;BME280;4798;41.574;23.734;2023-07-16T08:04:33;95526.97;;;33.72;58.58
9521;BME280;4798;41.574;23.734;2023-07-16T08:07:02;95527.72;;;34.79;55.94
9521;BME280;4798;41.574;23.734;2023-07-16T08:09:30;95520.25;;;35.23;55.54
9521;BME280;4798;41.574;23.734;2023-07-16T08:11:59;95515.66;;;35.75;55.33
9521;BME280;4798;41.574;23.734;2023-07-16T08:14:27;95517.16;;;36.15;53.42
9521;BME280;4798;41.574;23.734;2023-07-16T08:16:55;95517.59;;;35.94;55.13
9521;BME280;4798;41.574;23.734;2023-07-16T08:19:26;95515.66;;;35.36;54.48
9521;BME280;4798;41.574;23.734;2023-07-16T08:21:54;95525.22;;;34.65;54.13
9521;BME280;4798;41.574;23.734;2023-07-16T08:24:24;95516.03;;;34.72;54.77
9521;BME280;4798;41.574;23.734;2023-07-16T08:26:53;95516.44;;;35.36;54.59
9521;BME280;4798;41.574;23.734;2023-07-16T08:29:21;95510.69;;;35.27;53.64
9521;BME280;4798;41.574;23.734;2023-07-16T08:31:50;95516.34;;;35.40;53.70
9521;BME280;4798;41.574;23.734;2023-07-16T08:34:18;95510.78;;;35.43;51.29
9521;BME280;4798;41.574;23.734;2023-07-16T08:36:48;95514.16;;;35.51;50.46
9521;BME280;4798;41.574;23.734;2023-07-16T08:39:16;95507.00;;;35.57;49.80
9521;BME280;4798;41.574;23.734;2023-07-16T08:41:47;95505.06;;;36.42;49.51
9521;BME280;4798;41.574;23.734;2023-07-16T08:44:16;95507.28;;;37.11;49.38
9521;BME280;4798;41.574;23.734;2023-07-16T08:46:45;95501.78;;;36.47;52.93
9521;BME280;4798;41.574;23.734;2023-07-16T08:49:13;95502.66;;;36.27;49.84
9521;BME280;4798;41.574;23.734;2023-07-16T08:51:45;95499.53;;;37.06;49.39
9521;BME280;4798;41.574;23.734;2023-07-16T08:54:16;95494.97;;;36.83;49.67
9521;BME280;4798;41.574;23.734;2023-07-16T08:56:47;95499.81;;;36.96;51.38
9521;BME280;4798;41.574;23.734;2023-07-16T08:59:17;95493.50;;;36.95;48.16
9521;BME280;4798;41.574;23.734;2023-07-16T09:01:46;95502.91;;;36.17;49.35
9521;BME280;4798;41.574;23.734;2023-07-16T09:04:15;95495.31;;;36.85;48.47
9521;BME280;4798;41.574;23.734;2023-07-16T09:06:44;95488.19;;;37.58;46.48
9521;BME280;4798;41.574;23.734;2023-07-16T09:09:21;95481.25;;;37.79;47.27
9521;BME280;4798;41.574;23.734;2023-07-16T09:11:50;95426.47;;;37.48;47.04
9521;BME280;4798;41.574;23.734;2023-07-16T09:14:19;95480.53;;;37.91;46.86
9521;BME280;4798;41.574;23.734;2023-07-16T09:16:48;95482.56;;;37.49;46.34
9521;BME280;4798;41.574;23.734;2023-07-16T09:19:17;95427.53;;;36.52;46.42
9521;BME280;4798;41.574;23.734;2023-07-16T09:21:46;95480.00;;;36.68;48.29
9521;BME280;4798;41.574;23.734;2023-07-16T09:24:15;95480.06;;;36.33;47.48
9521;BME280;4798;41.574;23.734;2023-07-16T09:26:52;95473.84;;;37.34;46.80
9521;BME280;4798;41.574;23.734;2023-07-16T09:29:21;95476.84;;;36.82;47.44
9521;BME280;4798;41.574;23.734;2023-07-16T09:31:53;95469.03;;;38.05;45.28
9521;BME280;4798;41.574;23.734;2023-07-16T09:34:22;95460.47;;;38.37;44.49
9521;BME280;4798;41.574;23.734;2023-07-16T09:36:50;95467.22;;;38.11;45.27
9521;BME280;4798;41.574;23.734;2023-07-16T09:39:19;95460.25;;;38.06;44.81
9521;BME280;4798;41.574;23.734;2023-07-16T09:41:49;95458.91;;;38.49;44.78
9521;BME280;4798;41.574;23.734;2023-07-16T09:44:19;95456.03;;;39.21;43.26
9521;BME280;4798;41.574;23.734;2023-07-16T09:46:47;95451.28;;;39.21;45.69
9521;BME280;4798;41.574;23.734;2023-07-16T09:49:16;95453.81;;;37.84;44.05
9521;BME280;4798;41.574;23.734;2023-07-16T09:51:45;95400.72;;;38.02;44.07
9521;BME280;4798;41.574;23.734;2023-07-16T09:54:14;95453.38;;;38.11;44.15
9521;BME280;4798;41.574;23.734;2023-07-16T09:56:47;95444.31;;;38.83;43.95
9521;BME280;4798;41.574;23.734;2023-07-16T09:59:20;95440.41;;;38.46;43.76
9521;BME280;4798;41.574;23.734;2023-07-16T10:01:50;95438.00;;;38.82;44.34
9521;BME280;4798;41.574;23.734;2023-07-16T10:04:19;95385.78;;;38.81;43.45
9521;BME280;4798;41.574;23.734;2023-07-16T10:06:52;95431.50;;;39.19;41.95
9521;BME280;4798;41.574;23.734;2023-07-16T10:09:37;95423.59;;;39.09;42.64
9521;BME280;4798;41.574;23.734;2023-07-16T10:12:13;95415.53;;;39.76;42.93
9521;BME280;4798;41.574;23.734;2023-07-16T10:14:45;95426.50;;;37.99;42.59
9521;BME280;4798;41.574;23.734;2023-07-16T10:17:17;95420.59;;;38.82;42.58
9521;BME280;4798;41.574;23.734;2023-07-16T10:19:47;95403.47;;;38.96;40.73
9521;BME280;4798;41.574;23.734;2023-07-16T10:22:14;95421.75;;;37.87;42.66
9521;BME280;4798;41.574;23.734;2023-07-16T10:24:43;95408.75;;;38.68;41.90
9521;BME280;4798;41.574;23.734;2023-07-16T10:27:13;95411.28;;;39.31;40.51
9521;BME280;4798;41.574;23.734;2023-07-16T10:29:43;95401.50;;;39.49;41.28
9521;BME280;4798;41.574;23.734;2023-07-16T10:32:11;95392.50;;;39.14;40.69
9521;BME280;4798;41.574;23.734;2023-07-16T10:34:42;95398.09;;;39.75;39.54
9521;BME280;4798;41.574;23.734;2023-07-16T10:37:11;95383.09;;;40.04;39.62
9521;BME280;4798;41.574;23.734;2023-07-16T10:39:46;95397.38;;;39.10;39.92
9521;BME280;4798;41.574;23.734;2023-07-16T10:42:16;95403.47;;;38.14;41.71
9521;BME280;4798;41.574;23.734;2023-07-16T10:44:48;95384.94;;;39.36;41.18
9521;BME280;4798;41.574;23.734;2023-07-16T10:47:22;95386.16;;;39.96;38.87
9521;BME280;4798;41.574;23.734;2023-07-16T10:49:51;95379.81;;;40.54;37.87
9521;BME280;4798;41.574;23.734;2023-07-16T10:52:21;95382.38;;;40.12;38.55
9521;BME280;4798;41.574;23.734;2023-07-16T10:54:49;95375.22;;;39.31;40.01
9521;BME280;4798;41.574;23.734;2023-07-16T10:57:21;95372.97;;;39.48;39.08
9521;BME280;4798;41.574;23.734;2023-07-16T10:59:52;95377.28;;;40.20;40.50
9521;BME280;4798;41.574;23.734;2023-07-16T11:02:22;95374.69;;;40.34;38.29
9521;BME280;4798;41.574;23.734;2023-07-16T11:04:51;95369.09;;;40.07;38.03
9521;BME280;4798;41.574;23.734;2023-07-16T11:07:21;95369.56;;;40.15;37.71
9521;BME280;4798;41.574;23.734;2023-07-16T11:09:51;95369.88;;;40.08;38.13
9521;BME280;4798;41.574;23.734;2023-07-16T11:12:21;95369.75;;;39.50;38.52
9521;BME280;4798;41.574;23.734;2023-07-16T11:14:53;95367.22;;;38.56;38.76
9521;BME280;4798;41.574;23.734;2023-07-16T11:17:24;95369.22;;;39.11;38.30
9521;BME280;4798;41.574;23.734;2023-07-16T11:19:53;95372.38;;;38.79;38.38
9521;BME280;4798;41.574;23.734;2023-07-16T11:22:25;95369.19;;;38.34;39.50
9521;BME280;4798;41.574;23.734;2023-07-16T11:24:54;95354.19;;;39.00;39.25
9521;BME280;4798;41.574;23.734;2023-07-16T11:27:24;95362.59;;;39.09;39.31
9521;BME280;4798;41.574;23.734;2023-07-16T11:29:56;95354.66;;;39.90;38.91
9521;BME280;4798;41.574;23.734;2023-07-16T11:32:29;95331.47;;;39.35;39.12
9521;BME280;4798;41.574;23.734;2023-07-16T11:34:59;95355.47;;;38.64;39.67
9521;BME280;4798;41.574;23.734;2023-07-16T11:37:29;95363.66;;;38.68;38.75
9521;BME280;4798;41.574;23.734;2023-07-16T11:39:58;95350.44;;;38.50;40.27
9521;BME280;4798;41.574;23.734;2023-07-16T11:42:30;95349.94;;;39.08;39.74
9521;BME280;4798;41.574;23.734;2023-07-16T11:45:00;95351.00;;;39.01;40.83
9521;BME280;4798;41.574;23.734;2023-07-16T11:47:28;95356.06;;;39.03;40.30
9521;BME280;4798;41.574;23.734;2023-07-16T11:49:57;95308.94;;;38.38;40.40
9521;BME280;4798;41.574;23.734;2023-07-16T11:52:27;95355.25;;;38.93;39.54
9521;BME280;4798;41.574;23.734;2023-07-16T11:54:57;95333.19;;;39.42;39.73
9521;BME280;4798;41.574;23.734;2023-07-16T11:57:26;95346.38;;;40.00;38.96
9521;BME280;4798;41.574;23.734;2023-07-16T11:59:55;95347.22;;;39.17;39.52
9521;BME280;4798;41.574;23.734;2023-07-16T12:02:25;95333.91;;;39.03;40.12
9521;BME280;4798;41.574;23.734;2023-07-16T12:04:54;95340.47;;;39.88;39.99
9521;BME280;4798;41.574;23.734;2023-07-16T12:07:31;95339.00;;;39.66;39.82
9521;BME280;4798;41.574;23.734;2023-07-16T12:10:01;95345.94;;;39.61;40.04
9521;BME280;4798;41.574;23.734;2023-07-16T12:12:30;95343.75;;;39.25;38.71
9521;BME280;4798;41.574;23.734;2023-07-16T12:14:59;95345.28;;;39.97;38.80
9521;BME280;4798;41.574;23.734;2023-07-16T12:17:29;95347.84;;;39.82;38.92
9521;BME280;4798;41.574;23.734;2023-07-16T12:19:57;95340.09;;;39.68;38.97
9521;BME280;4798;41.574;23.734;2023-07-16T12:22:26;95338.66;;;39.94;38.34
9521;BME280;4798;41.574;23.734;2023-07-16T12:24:55;95334.69;;;40.41;38.67
9521;BME280;4798;41.574;23.734;2023-07-16T12:27:23;95341.97;;;40.29;38.36
9521;BME280;4798;41.574;23.734;2023-07-16T12:29:51;95342.31;;;40.49;38.58
9521;BME280;4798;41.574;23.734;2023-07-16T12:32:20;95339.50;;;39.73;39.51
9521;BME280;4798;41.574;23.734;2023-07-16T12:34:50;95343.78;;;38.82;39.83
9521;BME280;4798;41.574;23.734;2023-07-16T12:37:18;95330.38;;;39.64;38.89
9521;BME280;4798;41.574;23.734;2023-07-16T12:39:46;95334.78;;;40.01;39.10
9521;BME280;4798;41.574;23.734;2023-07-16T12:42:14;95343.31;;;38.15;40.15
9521;BME280;4798;41.574;23.734;2023-07-16T12:44:43;95337.63;;;37.72;40.82
9521;BME280;4798;41.574;23.734;2023-07-16T12:47:11;95325.81;;;38.18;39.65
9521;BME280;4798;41.574;23.734;2023-07-16T12:49:39;95335.50;;;38.01;40.11
9521;BME280;4798;41.574;23.734;2023-07-16T12:52:09;95333.16;;;36.70;42.22
9521;BME280;4798;41.574;23.734;2023-07-16T12:54:37;95330.66;;;36.88;42.29
9521;BME280;4798;41.574;23.734;2023-07-16T12:57:06;95330.34;;;36.41;43.20
9521;BME280;4798;41.574;23.734;2023-07-16T12:59:34;95324.06;;;36.69;43.37
9521;BME280;4798;41.574;23.734;2023-07-16T13:02:03;95324.66;;;36.03;45.45
9521;BME280;4798;41.574;23.734;2023-07-16T13:04:32;95328.19;;;35.72;45.75
9521;BME280;4798;41.574;23.734;2023-07-16T13:07:01;95325.50;;;35.52;46.07
9521;BME280;4798;41.574;23.734;2023-07-16T13:09:30;95323.75;;;35.42;46.35
9521;BME280;4798;41.574;23.734;2023-07-16T13:11:59;95327.25;;;35.26;46.39
9521;BME280;4798;41.574;23.734;2023-07-16T13:14:27;95324.25;;;36.33;44.89
9521;BME280;4798;41.574;23.734;2023-07-16T13:16:56;95309.16;;;36.96;43.98
9521;BME280;4798;41.574;23.734;2023-07-16T13:19:24;95324.03;;;36.85;43.84
9521;BME280;4798;41.574;23.734;2023-07-16T13:21:53;95325.56;;;36.86;44.05
9521;BME280;4798;41.574;23.734;2023-07-16T13:24:21;95324.25;;;36.91;43.18